Stoneham, Massachusetts
Current Conditions -  °F | °C
As of 6:56 AM on Monday 24 Nov 2014 (Local Time) from KBED Reporting Station
Moderate Rain Moderate Rain  
Wind Chill: 55°   Ceiling: 1000
Heat Index: 55°   Visibility: 4mi
Dew Point: 54°   Wind: 17mph
Humidity: 96%   Direction: 150°SSE
Pressure: 29.84"   Gusts: 25mph
Location:  42.48°N, 71.1°W
Report Text: KBED 241156Z 15015G22KT 4SM RA BR BKN010 OVC033 13/12 A2984 RMK AO2 SLP119 P0009 60014 70014 T01280122 10128 20028 56043
Loading
Personal Weather Stations






























Interactive Weather Map New forecast layout! Learn more

10-Day Weather Forecast

Advertisements
Track Severe Weather on mobile